Terminal Aerodrome Forecast
Issued by NWS Grand Forks, ND

Home | Current Version | Previous Version | Text Only | Print | Product List | Glossary On
Versions: 1 2 3 4 5 6 7 8 9 10 11 12 13 14 15 16
000
FTUS43 KFGF 192000 AAA
TAFGFK
TAF AMD
KGFK 192019Z 1920/2018 16009KT 3SM BR OVC005
      TEMPO 1920/1922 3/4SM -FZDZ BR
     FM192200 16010KT 4SM BR OVC004
     FM201400 19007KT 5SM BR OVC008=

USA.gov is the U.S. government's official web portal to all federal, state and local government web resources and services.